Time;durP1;ratioP1;P1;durP2;ratioP2;P2;SDS_P1;SDS_P2;PMS_P1;PMS_P2;Temp;Humidity;BMP_temperature;BMP_pressure;BME280_temperature;BME280_humidity;BME280_pressure;Samples;Min_cycle;Max_cycle;Signal;HPM_P1;HPM_P2
2022/03/07 00:01:39;;;;;;;16.33;11.87;;;-0.70;99.90;;;;;;5080262;28;20193;-78
2022/03/07 00:04:07;;;;;;;14.57;10.97;;;-0.80;99.90;;;;;;5077389;28;20224;-79
2022/03/07 00:06:34;;;;;;;17.03;11.67;;;-0.80;99.90;;;;;;5081414;28;20235;-78
2022/03/07 00:09:00;;;;;;;14.67;11.10;;;-0.80;99.90;;;;;;5080726;28;20197;-78
2022/03/07 00:11:29;;;;;;;11.67;9.37;;;-0.80;99.90;;;;;;5078133;28;20598;-79
2022/03/07 00:13:56;;;;;;;14.07;10.83;;;-0.80;99.90;;;;;;5080011;28;20243;-78
2022/03/07 00:16:22;;;;;;;13.37;9.93;;;-0.80;99.90;;;;;;5080389;28;20193;-78
2022/03/07 00:18:49;;;;;;;15.37;10.30;;;-0.90;99.90;;;;;;5080334;28;20231;-79
2022/03/07 00:21:18;;;;;;;13.07;9.90;;;-0.80;99.90;;;;;;5079060;28;20204;-79
2022/03/07 00:23:45;;;;;;;13.23;9.50;;;-0.90;99.90;;;;;;5078041;28;20229;-79
2022/03/07 00:26:14;;;;;;;11.10;8.90;;;-0.90;99.90;;;;;;5079999;28;20197;-78
2022/03/07 00:28:41;;;;;;;12.87;9.87;;;-0.90;99.90;;;;;;5077245;28;20204;-79
2022/03/07 00:31:08;;;;;;;13.73;9.83;;;-0.90;99.90;;;;;;5077603;28;20227;-79
2022/03/07 00:33:35;;;;;;;10.20;8.10;;;-0.90;99.90;;;;;;5081317;28;20247;-79
2022/03/07 00:36:01;;;;;;;10.30;8.33;;;-0.90;99.90;;;;;;5078192;28;20690;-77
2022/03/07 00:38:29;;;;;;;12.40;8.80;;;-1.00;99.90;;;;;;5077128;28;20204;-79
2022/03/07 00:40:57;;;;;;;11.57;8.87;;;-1.00;99.90;;;;;;5076368;28;20197;-78
2022/03/07 00:43:24;;;;;;;13.87;8.90;;;-0.90;99.90;;;;;;5080483;28;20250;-78
2022/03/07 00:45:51;;;;;;;10.93;8.53;;;-1.00;99.90;;;;;;5081662;28;20226;-79
2022/03/07 00:48:18;;;;;;;12.50;8.80;;;-1.00;99.90;;;;;;5079472;28;20196;-79
2022/03/07 00:50:45;;;;;;;11.77;8.70;;;-1.00;99.90;;;;;;5079607;28;20197;-79
2022/03/07 00:53:13;;;;;;;10.23;8.13;;;-1.00;99.90;;;;;;5080392;28;20594;-79
2022/03/07 00:55:42;;;;;;;10.57;8.80;;;-1.10;99.90;;;;;;5079862;28;20251;-79
2022/03/07 00:58:08;;;;;;;10.83;8.30;;;-1.00;99.90;;;;;;5081808;28;20196;-79
2022/03/07 01:00:36;;;;;;;12.13;9.00;;;-1.00;99.90;;;;;;5080819;28;20200;-79
2022/03/07 01:03:03;;;;;;;11.13;8.43;;;-1.10;99.90;;;;;;5079979;28;20254;-79
2022/03/07 01:05:31;;;;;;;10.83;8.60;;;-1.10;99.90;;;;;;5080576;28;20221;-79
2022/03/07 01:07:58;;;;;;;10.67;8.70;;;-1.10;99.90;;;;;;5080930;28;20205;-78
2022/03/07 01:10:25;;;;;;;9.77;7.97;;;-1.10;99.90;;;;;;5080848;28;20196;-80
2022/03/07 01:12:53;;;;;;;11.70;8.07;;;-1.10;99.90;;;;;;5080919;28;20200;-79
2022/03/07 01:15:21;;;;;;;9.90;8.17;;;-1.10;99.90;;;;;;5082455;28;20201;-79
2022/03/07 01:17:48;;;;;;;14.20;8.97;;;-1.20;99.90;;;;;;5085073;28;20242;-80
2022/03/07 01:20:15;;;;;;;12.60;9.30;;;-1.20;99.90;;;;;;5083364;28;20197;-79
2022/03/07 01:22:42;;;;;;;11.70;8.70;;;-1.20;99.90;;;;;;5081595;28;20200;-78
2022/03/07 01:25:10;;;;;;;11.70;8.27;;;-1.30;99.90;;;;;;5080851;28;20317;-78
2022/03/07 01:27:37;;;;;;;10.43;7.63;;;-1.30;99.90;;;;;;5082750;28;20201;-79
2022/03/07 01:30:07;;;;;;;12.83;7.67;;;-1.20;99.90;;;;;;5081929;28;20664;-79
2022/03/07 01:32:33;;;;;;;9.80;7.77;;;-1.30;99.90;;;;;;5081587;28;20255;-80
2022/03/07 01:35:00;;;;;;;11.47;7.87;;;-1.30;99.90;;;;;;5082815;28;20234;-79
2022/03/07 01:37:27;;;;;;;11.07;8.20;;;-1.40;99.90;;;;;;5063717;28;20261;-79
2022/03/07 01:39:54;;;;;;;10.40;7.73;;;-1.40;99.90;;;;;;5081654;28;20262;-79
2022/03/07 01:42:20;;;;;;;11.60;7.80;;;-1.40;99.90;;;;;;5083082;28;20211;-79
2022/03/07 01:44:47;;;;;;;10.43;7.97;;;-1.40;99.90;;;;;;5081433;28;20809;-80
2022/03/07 01:47:15;;;;;;;10.53;7.40;;;-1.40;99.90;;;;;;5080863;28;20197;-80
2022/03/07 01:49:42;;;;;;;11.63;8.47;;;-1.40;99.90;;;;;;5082586;28;20193;-79
2022/03/07 01:52:10;;;;;;;11.17;8.10;;;-1.40;99.90;;;;;;5081129;28;20200;-79
2022/03/07 01:54:37;;;;;;;11.87;8.50;;;-1.40;99.90;;;;;;5079181;28;20225;-79
2022/03/07 01:57:04;;;;;;;10.17;7.70;;;-1.50;99.90;;;;;;5080245;28;20265;-79
2022/03/07 01:59:33;;;;;;;10.90;7.90;;;-1.50;99.90;;;;;;5079699;28;20193;-79
2022/03/07 02:02:00;;;;;;;9.70;7.43;;;-1.50;99.90;;;;;;5080681;28;20284;-79
2022/03/07 02:04:28;;;;;;;9.80;7.80;;;-1.50;99.90;;;;;;5078469;28;20217;-79
2022/03/07 02:06:55;;;;;;;10.27;7.60;;;-1.50;99.90;;;;;;5078153;28;20205;-79
2022/03/07 02:09:22;;;;;;;12.83;8.10;;;-1.60;99.90;;;;;;5062139;28;20255;-80
2022/03/07 02:11:49;;;;;;;9.30;7.33;;;-1.50;99.90;;;;;;5078804;28;20197;-79
2022/03/07 02:14:17;;;;;;;10.67;8.13;;;-1.60;99.90;;;;;;5085651;28;20208;-80
2022/03/07 02:16:45;;;;;;;9.90;7.80;;;-1.60;99.90;;;;;;5088832;28;20601;-79
2022/03/07 02:19:13;;;;;;;10.13;7.60;;;-1.60;99.90;;;;;;5089092;28;20205;-79
2022/03/07 02:21:44;;;;;;;10.20;7.53;;;-1.60;99.90;;;;;;5087987;28;20197;-80
2022/03/07 02:24:12;;;;;;;10.03;7.83;;;-1.60;99.90;;;;;;5070391;28;20221;-80
2022/03/07 02:26:39;;;;;;;9.60;7.40;;;-1.60;99.90;;;;;;5088099;28;20197;-80
2022/03/07 02:29:07;;;;;;;11.50;7.93;;;-1.70;99.90;;;;;;5088200;28;20205;-80
2022/03/07 02:31:36;;;;;;;10.17;7.53;;;-1.70;99.90;;;;;;5085768;28;20201;-79
2022/03/07 02:34:03;;;;;;;11.17;8.27;;;-1.70;99.90;;;;;;5082485;28;20205;-79
2022/03/07 02:36:30;;;;;;;10.07;7.70;;;-1.80;99.90;;;;;;5082397;28;20228;-79
2022/03/07 02:38:57;;;;;;;10.27;7.23;;;-1.80;99.90;;;;;;5083830;28;20196;-79
2022/03/07 02:41:25;;;;;;;11.13;7.63;;;-1.70;99.90;;;;;;5082412;28;20201;-79
2022/03/07 02:43:52;;;;;;;11.70;7.20;;;-1.80;99.90;;;;;;5062913;28;20227;-80
2022/03/07 02:46:19;;;;;;;10.37;7.60;;;-1.80;99.90;;;;;;5081911;28;20248;-80
2022/03/07 02:48:46;;;;;;;10.30;7.57;;;-1.80;99.90;;;;;;5079698;28;20279;-79
2022/03/07 02:51:12;;;;;;;12.47;8.00;;;-1.80;99.90;;;;;;5078969;28;20250;-80
2022/03/07 02:53:39;;;;;;;11.13;8.13;;;-1.80;99.90;;;;;;5078463;28;20544;-79
2022/03/07 02:56:06;;;;;;;11.43;8.27;;;-1.80;99.90;;;;;;5078834;28;20201;-80
2022/03/07 02:58:34;;;;;;;11.40;8.50;;;-1.80;99.90;;;;;;5078013;28;20231;-80
2022/03/07 03:01:01;;;;;;;11.93;8.67;;;-1.80;99.90;;;;;;5078083;28;20193;-79
2022/03/07 03:03:28;;;;;;;12.80;8.53;;;-1.80;99.90;;;;;;5078017;28;20208;-78
2022/03/07 03:05:55;;;;;;;14.17;9.40;;;-1.90;99.90;;;;;;5077580;28;20337;-80
2022/03/07 03:08:22;;;;;;;14.33;8.80;;;-1.90;99.90;;;;;;5078261;28;20197;-79
2022/03/07 03:10:49;;;;;;;12.43;8.77;;;-1.80;99.90;;;;;;5078968;28;20228;-79
2022/03/07 03:13:17;;;;;;;11.50;8.63;;;-1.80;99.90;;;;;;5078642;28;20265;-79
2022/03/07 03:15:45;;;;;;;14.13;9.53;;;-1.90;99.90;;;;;;5079977;28;20254;-79
2022/03/07 03:18:13;;;;;;;11.47;8.93;;;-1.90;99.90;;;;;;5078739;28;20246;-79
2022/03/07 03:20:40;;;;;;;12.90;9.57;;;-1.90;99.90;;;;;;5079582;28;20656;-79
2022/03/07 03:23:07;;;;;;;13.27;10.10;;;-1.90;99.90;;;;;;5079217;28;20231;-79
2022/03/07 03:25:34;;;;;;;14.23;10.17;;;-1.90;99.90;;;;;;5078565;28;20228;-79
2022/03/07 03:28:00;;;;;;;17.60;10.27;;;-1.90;99.90;;;;;;5079924;28;20603;-78
2022/03/07 03:30:28;;;;;;;14.13;9.27;;;-1.90;99.90;;;;;;5078839;28;20197;-79
2022/03/07 03:32:56;;;;;;;14.13;9.90;;;-1.90;99.90;;;;;;5077066;28;20200;-80
2022/03/07 03:35:23;;;;;;;13.97;9.70;;;-1.90;99.90;;;;;;5077868;28;20262;-79
2022/03/07 03:37:49;;;;;;;14.77;10.07;;;-2.00;99.90;;;;;;5077381;28;20225;-78
2022/03/07 03:40:19;;;;;;;15.13;10.03;;;-2.00;99.90;;;;;;5078067;28;20201;-79
2022/03/07 03:42:47;;;;;;;15.07;10.20;;;-1.90;99.90;;;;;;5077130;28;20201;-79
2022/03/07 03:45:14;;;;;;;18.43;11.37;;;-2.00;99.90;;;;;;5076525;28;20228;-79
2022/03/07 03:47:43;;;;;;;15.07;10.47;;;-2.00;99.90;;;;;;5076131;28;20652;-78
2022/03/07 03:50:13;;;;;;;16.90;10.93;;;-1.90;99.90;;;;;;5076775;28;20204;-79
2022/03/07 03:52:40;;;;;;;15.67;11.13;;;-2.00;99.90;;;;;;5076326;28;20227;-79
2022/03/07 03:55:09;;;;;;;15.80;11.27;;;-1.90;99.90;;;;;;5076861;28;20197;-79
2022/03/07 03:57:36;;;;;;;18.90;10.97;;;-1.90;99.90;;;;;;5077187;28;20201;-80
2022/03/07 04:00:03;;;;;;;14.10;10.03;;;-2.00;99.90;;;;;;5078599;28;20209;-80
2022/03/07 04:02:30;;;;;;;17.27;12.37;;;-2.00;99.90;;;;;;5077061;28;20288;-79
2022/03/07 04:04:56;;;;;;;18.23;12.23;;;-2.00;99.90;;;;;;5076771;28;20627;-79
2022/03/07 04:07:24;;;;;;;16.47;11.33;;;-2.00;99.90;;;;;;5074078;28;20204;-79
2022/03/07 04:09:51;;;;;;;18.97;11.70;;;-2.00;99.90;;;;;;5073761;28;20250;-79
2022/03/07 04:12:18;;;;;;;16.87;11.60;;;-2.00;99.90;;;;;;5074126;28;20536;-79
2022/03/07 04:14:45;;;;;;;14.87;11.30;;;-2.00;99.90;;;;;;5074213;28;20291;-79
2022/03/07 04:17:11;;;;;;;18.37;11.13;;;-2.00;99.90;;;;;;5075964;28;20193;-80
2022/03/07 04:19:38;;;;;;;18.70;12.40;;;-2.00;99.90;;;;;;5078688;28;20205;-79
2022/03/07 04:22:05;;;;;;;20.40;12.73;;;-2.00;99.90;;;;;;5081075;28;20197;-80
2022/03/07 04:24:35;;;;;;;18.57;11.63;;;-2.00;99.90;;;;;;5081897;28;20730;-79
2022/03/07 04:27:04;;;;;;;15.60;10.93;;;-2.00;99.90;;;;;;5079028;28;20201;-79
2022/03/07 04:29:32;;;;;;;16.60;11.50;;;-2.00;99.90;;;;;;5078405;28;20280;-79
2022/03/07 04:31:59;;;;;;;15.93;11.00;;;-2.00;99.90;;;;;;5077800;28;20200;-80
2022/03/07 04:34:26;;;;;;;16.17;10.97;;;-2.00;99.90;;;;;;5082805;28;20250;-80
2022/03/07 04:36:53;;;;;;;16.63;11.27;;;-2.00;99.90;;;;;;5082921;28;20229;-80
2022/03/07 04:39:19;;;;;;;16.63;10.70;;;-2.10;99.90;;;;;;5080680;28;20192;-80
2022/03/07 04:41:48;;;;;;;16.10;11.13;;;-2.10;99.90;;;;;;5077466;28;20205;-78
2022/03/07 04:44:14;;;;;;;14.83;10.50;;;-2.10;99.90;;;;;;5077938;28;20258;-80
2022/03/07 04:46:41;;;;;;;15.83;10.90;;;-2.10;99.90;;;;;;5078104;28;20229;-79
2022/03/07 04:49:10;;;;;;;17.10;11.20;;;-2.10;99.90;;;;;;5077398;28;20709;-78
2022/03/07 04:51:37;;;;;;;14.93;10.93;;;-2.10;99.90;;;;;;5077886;28;20200;-77
2022/03/07 04:54:04;;;;;;;17.80;11.53;;;-2.00;99.90;;;;;;5077923;28;20205;-79
2022/03/07 04:56:30;;;;;;;14.47;10.20;;;-2.10;99.90;;;;;;5077453;28;20556;-78
2022/03/07 04:58:58;;;;;;;16.33;11.23;;;-2.10;99.90;;;;;;5077243;28;20205;-78
2022/03/07 05:01:25;;;;;;;14.77;10.53;;;-2.10;99.90;;;;;;5077182;28;20193;-78
2022/03/07 05:03:52;;;;;;;14.77;10.47;;;-2.10;99.90;;;;;;5077660;28;20266;-77
2022/03/07 05:06:18;;;;;;;13.73;10.30;;;-2.10;99.90;;;;;;5077407;28;20710;-79
2022/03/07 05:08:45;;;;;;;14.73;10.47;;;-2.20;99.90;;;;;;5077256;28;20197;-78
2022/03/07 05:11:12;;;;;;;15.97;9.50;;;-2.10;99.90;;;;;;5077358;28;20625;-78
2022/03/07 05:13:38;;;;;;;12.57;9.47;;;-2.10;99.90;;;;;;5077300;28;20197;-79
2022/03/07 05:16:07;;;;;;;14.90;9.93;;;-2.10;99.90;;;;;;5080694;28;20251;-78
2022/03/07 05:18:34;;;;;;;14.03;9.90;;;-2.10;99.90;;;;;;5080165;28;20208;-79
2022/03/07 05:21:01;;;;;;;14.70;9.70;;;-2.20;99.90;;;;;;5060896;28;20322;-79
2022/03/07 05:23:27;;;;;;;16.23;9.73;;;-2.10;99.90;;;;;;5078161;28;20201;-79
2022/03/07 05:25:54;;;;;;;12.80;9.43;;;-2.10;99.90;;;;;;5078095;28;20224;-78
2022/03/07 05:28:21;;;;;;;13.70;9.93;;;-2.10;99.90;;;;;;5076994;28;20251;-79
2022/03/07 05:30:48;;;;;;;13.57;9.97;;;-2.10;99.90;;;;;;5076865;28;20201;-78
2022/03/07 05:33:16;;;;;;;14.27;9.90;;;-2.10;99.90;;;;;;5078101;28;20250;-79
2022/03/07 05:35:43;;;;;;;14.33;10.17;;;-2.10;99.90;;;;;;5077269;28;20197;-79
2022/03/07 05:38:09;;;;;;;14.20;9.47;;;-2.10;99.90;;;;;;5076545;28;20253;-79
2022/03/07 05:40:37;;;;;;;13.70;9.37;;;-2.10;99.90;;;;;;5077675;28;20610;-78
2022/03/07 05:43:04;;;;;;;12.90;9.20;;;-2.10;99.90;;;;;;5077153;28;20227;-79
2022/03/07 05:45:31;;;;;;;13.63;10.23;;;-2.10;99.90;;;;;;5076882;28;20719;-77
2022/03/07 05:47:58;;;;;;;15.77;9.20;;;-2.20;99.90;;;;;;5076457;28;20205;-79
2022/03/07 05:50:26;;;;;;;15.43;9.23;;;-2.20;99.90;;;;;;5076707;28;20197;-80
2022/03/07 05:52:52;;;;;;;13.00;9.40;;;-2.20;99.90;;;;;;5077526;28;20254;-79
2022/03/07 05:55:19;;;;;;;17.90;9.73;;;-2.20;99.90;;;;;;5077703;28;20226;-78
2022/03/07 05:57:46;;;;;;;14.93;9.77;;;-2.20;99.90;;;;;;5077011;28;20201;-79
2022/03/07 06:00:13;;;;;;;13.90;9.10;;;-2.20;99.90;;;;;;5078157;28;20258;-79
2022/03/07 06:02:40;;;;;;;14.37;8.60;;;-2.20;99.90;;;;;;5078577;28;20196;-79
2022/03/07 06:05:07;;;;;;;13.90;9.30;;;-2.20;99.90;;;;;;5078796;28;20197;-79
2022/03/07 06:07:36;;;;;;;12.60;8.87;;;-2.10;99.90;;;;;;5076664;28;20204;-79
2022/03/07 06:10:03;;;;;;;12.10;8.37;;;-2.10;99.90;;;;;;5077848;28;20656;-78
2022/03/07 06:12:29;;;;;;;12.20;9.03;;;-2.10;99.90;;;;;;5079125;28;20209;-79
2022/03/07 06:14:56;;;;;;;13.50;9.30;;;-2.10;99.90;;;;;;5078104;28;20251;-78
2022/03/07 06:17:23;;;;;;;12.63;9.00;;;-2.10;99.90;;;;;;5079296;28;20648;-79
2022/03/07 06:19:50;;;;;;;12.73;9.67;;;-2.10;99.90;;;;;;5079524;28;20254;-79
2022/03/07 06:22:17;;;;;;;12.23;9.10;;;-2.10;99.90;;;;;;5079449;28;20225;-79
2022/03/07 06:24:45;;;;;;;13.27;9.33;;;-2.10;99.90;;;;;;5080005;28;20197;-78
2022/03/07 06:27:12;;;;;;;15.00;9.60;;;-2.10;99.90;;;;;;5079437;28;20221;-79
2022/03/07 06:29:38;;;;;;;16.80;10.40;;;-2.00;99.90;;;;;;5079612;28;20598;-80
2022/03/07 06:32:06;;;;;;;15.03;10.30;;;-2.00;99.90;;;;;;5079707;28;20254;-79
2022/03/07 06:34:34;;;;;;;14.60;10.07;;;-2.00;99.90;;;;;;5082659;28;20232;-79
2022/03/07 06:37:00;;;;;;;13.73;9.87;;;-2.00;99.90;;;;;;5082325;28;20260;-80
2022/03/07 06:39:28;;;;;;;13.30;10.03;;;-2.00;99.90;;;;;;5080718;28;20529;-81
2022/03/07 06:41:56;;;;;;;14.97;9.80;;;-1.90;99.90;;;;;;5080504;28;20284;-80
2022/03/07 06:44:23;;;;;;;16.33;11.43;;;-1.90;99.90;;;;;;5086309;28;20197;-80
2022/03/07 06:46:50;;;;;;;14.60;10.23;;;-1.90;99.90;;;;;;5087710;28;20225;-81
2022/03/07 06:49:17;;;;;;;17.07;10.03;;;-1.80;99.90;;;;;;5086187;28;20197;-79
2022/03/07 06:51:43;;;;;;;13.53;9.70;;;-1.80;99.90;;;;;;5086406;28;20197;-79
2022/03/07 06:54:12;;;;;;;17.57;10.20;;;-1.70;99.90;;;;;;5084910;28;20223;-80
2022/03/07 06:56:39;;;;;;;12.27;9.63;;;-1.70;99.90;;;;;;5082504;28;20239;-80
2022/03/07 06:59:07;;;;;;;15.50;9.93;;;-1.60;99.90;;;;;;5081812;28;20231;-80
2022/03/07 07:01:34;;;;;;;15.10;10.17;;;-1.60;99.90;;;;;;5082212;28;20656;-80
2022/03/07 07:04:00;;;;;;;14.60;10.17;;;-1.60;99.90;;;;;;5081977;28;20201;-79
2022/03/07 07:06:28;;;;;;;16.67;9.87;;;-1.50;99.90;;;;;;5082462;28;20216;-79
2022/03/07 07:08:55;;;;;;;14.00;10.10;;;-1.60;99.90;;;;;;5081746;28;20254;-78
2022/03/07 07:11:21;;;;;;;14.20;10.20;;;-1.50;99.90;;;;;;5081914;28;20223;-78
2022/03/07 07:13:48;;;;;;;17.63;10.13;;;-1.50;99.90;;;;;;5083203;28;20193;-78
2022/03/07 07:16:16;;;;;;;21.67;10.27;;;-1.50;99.90;;;;;;5082611;28;20205;-80
2022/03/07 07:18:43;;;;;;;16.63;10.57;;;-1.50;99.90;;;;;;5082862;28;20196;-79
2022/03/07 07:21:09;;;;;;;16.37;11.13;;;-1.50;99.90;;;;;;5083111;28;20250;-79
2022/03/07 07:23:37;;;;;;;28.13;12.07;;;-1.50;99.90;;;;;;5085044;28;20205;-79
2022/03/07 07:26:04;;;;;;;22.17;11.47;;;-1.50;99.90;;;;;;5084998;28;20221;-80
2022/03/07 07:28:31;;;;;;;12.97;10.27;;;-1.50;99.90;;;;;;5084351;28;20197;-79
2022/03/07 07:30:57;;;;;;;14.57;11.00;;;-1.50;99.90;;;;;;5085323;28;20260;-79
2022/03/07 07:33:25;;;;;;;15.10;11.33;;;-1.40;99.90;;;;;;5085746;28;20205;-80
2022/03/07 07:35:52;;;;;;;20.17;12.33;;;-1.30;99.90;;;;;;5085592;28;20205;-79
2022/03/07 07:38:21;;;;;;;16.80;11.70;;;-1.30;99.90;;;;;;5084078;28;20256;-80
2022/03/07 07:40:48;;;;;;;15.40;10.87;;;-1.30;99.90;;;;;;5084514;28;20228;-79
2022/03/07 07:43:14;;;;;;;17.47;11.47;;;-1.10;99.90;;;;;;5084488;28;20209;-79
2022/03/07 07:45:41;;;;;;;25.77;11.70;;;-1.00;96.20;;;;;;5084252;28;20691;-78
2022/03/07 07:48:08;;;;;;;18.30;11.97;;;-0.90;93.90;;;;;;5085287;28;20659;-77
2022/03/07 07:50:36;;;;;;;20.53;11.33;;;-0.80;93.40;;;;;;5085967;28;20656;-77
2022/03/07 07:53:03;;;;;;;16.93;11.30;;;-0.70;90.10;;;;;;5085089;28;20235;-78
2022/03/07 07:55:30;;;;;;;17.80;11.57;;;-0.60;87.00;;;;;;5084723;28;20205;-75
2022/03/07 07:57:56;;;;;;;16.37;11.33;;;-0.50;84.70;;;;;;5085987;28;20200;-78
2022/03/07 08:00:23;;;;;;;16.30;12.03;;;-0.50;82.10;;;;;;5084006;28;20201;-77
2022/03/07 08:02:51;;;;;;;15.77;11.90;;;-0.40;79.00;;;;;;5085607;28;20247;-79
2022/03/07 08:05:29;;;;;;;15.60;12.37;;;-0.20;77.50;;;;;;5084226;28;20261;-79
2022/03/07 08:07:57;;;;;;;18.03;12.73;;;-0.20;70.80;;;;;;5085723;28;20667;-79
2022/03/07 08:10:26;;;;;;;15.90;11.93;;;-0.20;69.90;;;;;;5088396;28;20207;-79
2022/03/07 08:12:53;;;;;;;14.93;11.40;;;-0.10;65.60;;;;;;5083205;28;20200;-78
2022/03/07 08:15:20;;;;;;;19.83;12.63;;;0.00;66.40;;;;;;5082376;28;20648;-77
2022/03/07 08:17:49;;;;;;;15.90;12.50;;;0.10;65.30;;;;;;5084507;28;20212;-77
2022/03/07 08:20:17;;;;;;;18.97;12.37;;;0.30;61.10;;;;;;5081696;28;20200;-78
2022/03/07 08:22:44;;;;;;;17.03;12.47;;;0.40;56.70;;;;;;5079886;28;20201;-77
2022/03/07 08:25:13;;;;;;;17.50;12.47;;;0.30;54.40;;;;;;5078688;28;20610;-76
2022/03/07 08:27:40;;;;;;;21.27;12.40;;;0.50;52.60;;;;;;5075477;28;20687;-75
2022/03/07 08:30:10;;;;;;;18.70;12.47;;;0.50;51.90;;;;;;5075738;28;20259;-76
2022/03/07 08:32:38;;;;;;;17.53;11.93;;;0.60;50.20;;;;;;5076188;28;20197;-75
2022/03/07 08:35:06;;;;;;;17.63;12.77;;;0.50;49.60;;;;;;5075581;28;20200;-76
2022/03/07 08:37:33;;;;;;;16.53;12.57;;;0.70;50.10;;;;;;5076874;28;20266;-76
2022/03/07 08:40:00;;;;;;;17.57;13.10;;;0.80;49.50;;;;;;5060661;28;20606;-76
2022/03/07 08:42:28;;;;;;;18.17;13.50;;;1.10;47.80;;;;;;5078807;28;20263;-76
2022/03/07 08:44:55;;;;;;;18.67;13.13;;;1.10;47.30;;;;;;5078584;28;20725;-76
2022/03/07 08:47:22;;;;;;;21.63;14.30;;;0.90;46.50;;;;;;5078392;28;20263;-76
2022/03/07 08:49:49;;;;;;;16.53;13.33;;;1.00;45.50;;;;;;5078882;28;20223;-77
2022/03/07 08:52:16;;;;;;;20.77;14.33;;;1.10;45.10;;;;;;5078780;28;20220;-75
2022/03/07 08:54:43;;;;;;;20.40;13.67;;;1.20;45.40;;;;;;5078768;28;20189;-76
2022/03/07 08:57:09;;;;;;;18.93;13.30;;;1.40;44.70;;;;;;5079442;28;20260;-76
2022/03/07 08:59:37;;;;;;;22.37;13.53;;;1.60;42.60;;;;;;5078487;28;20208;-76
2022/03/07 09:02:04;;;;;;;16.60;13.57;;;1.90;40.20;;;;;;5079455;28;20197;-76
2022/03/07 09:04:31;;;;;;;18.33;13.30;;;2.30;38.80;;;;;;5081593;28;20292;-76
2022/03/07 09:06:57;;;;;;;17.57;13.80;;;2.50;36.60;;;;;;5081921;28;20225;-76
2022/03/07 09:09:26;;;;;;;19.43;14.00;;;2.40;35.30;;;;;;5080692;28;20612;-75
2022/03/07 09:11:52;;;;;;;16.73;13.50;;;2.30;35.10;;;;;;5081120;28;20207;-75
2022/03/07 09:14:19;;;;;;;16.33;13.50;;;2.30;33.70;;;;;;5081830;28;20665;-76
2022/03/07 09:16:47;;;;;;;16.87;12.63;;;2.20;33.60;;;;;;5083433;28;20228;-76
2022/03/07 09:19:14;;;;;;;17.33;13.27;;;1.90;33.50;;;;;;5083727;28;20333;-77
2022/03/07 09:21:41;;;;;;;16.90;13.50;;;1.90;33.50;;;;;;5079491;28;20605;-76
2022/03/07 09:24:08;;;;;;;16.77;13.57;;;1.80;34.00;;;;;;5078827;28;20668;-76
2022/03/07 09:26:34;;;;;;;18.13;14.33;;;1.70;33.70;;;;;;5078124;28;20222;-76
2022/03/07 09:29:01;;;;;;;17.30;13.60;;;1.50;34.10;;;;;;5078380;28;20254;-78
2022/03/07 09:31:28;;;;;;;15.80;12.70;;;1.60;34.00;;;;;;5061239;28;20236;-78
2022/03/07 09:33:57;;;;;;;16.63;13.67;;;1.70;33.20;;;;;;5079160;28;20248;-77
2022/03/07 09:36:24;;;;;;;16.80;13.60;;;1.70;34.00;;;;;;5078517;28;20279;-78
2022/03/07 09:38:51;;;;;;;18.07;14.37;;;1.80;34.00;;;;;;5079059;28;20590;-78
2022/03/07 09:41:18;;;;;;;15.50;13.30;;;1.60;34.10;;;;;;5078264;28;20211;-77
2022/03/07 09:43:46;;;;;;;17.80;14.00;;;1.60;33.30;;;;;;5078579;28;20198;-78
2022/03/07 09:46:14;;;;;;;17.00;13.80;;;1.70;33.40;;;;;;5078411;28;20726;-77
2022/03/07 09:48:41;;;;;;;19.93;14.07;;;1.60;33.40;;;;;;5078666;28;20267;-78
2022/03/07 09:51:10;;;;;;;20.20;15.50;;;1.90;34.30;;;;;;5078847;28;20201;-77
2022/03/07 09:53:37;;;;;;;18.17;14.67;;;2.40;33.50;;;;;;5079084;28;20204;-76
2022/03/07 09:56:05;;;;;;;19.67;15.00;;;2.60;33.20;;;;;;5078357;28;20197;-77
2022/03/07 09:58:32;;;;;;;17.17;14.27;;;2.80;31.80;;;;;;5077970;28;20671;-75
2022/03/07 10:01:07;;;;;;;16.93;13.13;;;3.40;31.70;;;;;;5078580;28;20197;-76
2022/03/07 10:03:34;;;;;;;17.00;13.67;;;4.10;30.30;;;;;;5077317;28;20218;-76
2022/03/07 10:06:01;;;;;;;16.17;13.80;;;4.60;29.00;;;;;;5077344;28;20196;-76
2022/03/07 10:08:30;;;;;;;17.40;14.73;;;4.90;28.50;;;;;;5076216;28;20278;-78
2022/03/07 10:10:57;;;;;;;16.63;14.87;;;4.90;28.80;;;;;;5074708;28;20243;-78
2022/03/07 10:13:25;;;;;;;17.98;16.17;;;4.80;28.70;;;;;;5073875;28;20906;-76
2022/03/07 10:15:57;;;;;;;17.17;15.20;;;4.80;27.60;;;;;;5074027;28;20193;-75
2022/03/07 10:18:25;;;;;;;17.07;15.33;;;4.80;27.30;;;;;;5074928;28;20287;-78
2022/03/07 10:20:53;;;;;;;19.02;17.13;;;5.00;26.90;;;;;;5073248;28;20491;-78
2022/03/07 10:23:20;;;;;;;17.77;15.90;;;4.90;27.10;;;;;;5074312;28;20193;-78
2022/03/07 10:25:49;;;;;;;18.47;16.00;;;5.10;26.40;;;;;;5074256;28;20193;-78
2022/03/07 10:28:16;;;;;;;18.03;15.97;;;5.00;26.40;;;;;;5073678;28;20726;-78
2022/03/07 10:30:42;;;;;;;17.73;15.83;;;5.00;26.30;;;;;;5073779;28;20201;-78
2022/03/07 10:33:10;;;;;;;17.70;15.73;;;4.90;26.20;;;;;;5073726;28;20659;-78
2022/03/07 10:35:41;;;;;;;18.80;16.57;;;5.10;26.40;;;;;;5074002;28;20201;-78
2022/03/07 10:38:10;;;;;;;18.07;14.93;;;5.60;25.70;;;;;;5073500;28;20235;-73
2022/03/07 10:40:39;;;;;;;17.40;15.60;;;6.20;24.90;;;;;;5074063;28;20201;-75
2022/03/07 10:43:08;;;;;;;17.70;15.93;;;6.90;24.10;;;;;;5073299;28;20723;-76
2022/03/07 10:45:45;;;;;;;17.43;15.37;;;7.60;23.50;;;;;;5073754;28;20250;-75
2022/03/07 10:48:12;;;;;;;18.57;16.67;;;7.80;22.20;;;;;;5073333;28;20220;-75
2022/03/07 10:50:42;;;;;;;17.20;15.60;;;8.20;22.20;;;;;;5073272;28;20262;-76
2022/03/07 10:53:09;;;;;;;18.27;16.58;;;8.80;21.50;;;;;;5073473;28;20263;-76
2022/03/07 10:55:36;;;;;;;18.33;16.25;;;9.40;20.90;;;;;;5073200;28;20208;-78
2022/03/07 10:58:09;;;;;;;18.88;17.17;;;9.60;19.70;;;;;;5073572;28;20223;-76
2022/03/07 11:00:48;;;;;;;18.95;17.05;;;9.70;19.80;;;;;;5073693;28;20227;-78
2022/03/07 11:03:19;;;;;;;18.40;16.77;;;9.70;18.70;;;;;;5073380;28;20246;-77
2022/03/07 11:05:46;;;;;;;19.05;17.25;;;9.90;18.30;;;;;;5073262;28;20242;-78
2022/03/07 11:08:15;;;;;;;19.98;18.15;;;9.90;18.10;;;;;;5073197;28;20224;-76
2022/03/07 11:10:45;;;;;;;19.70;17.92;;;9.80;17.70;;;;;;5073500;28;20229;-76
2022/03/07 11:13:15;;;;;;;19.23;17.42;;;9.90;17.40;;;;;;5073280;28;20201;-76
2022/03/07 11:15:43;;;;;;;19.08;17.38;;;10.10;17.40;;;;;;5073118;28;20208;-79
2022/03/07 11:18:12;;;;;;;18.92;17.23;;;10.60;17.00;;;;;;5073374;28;20205;-79
2022/03/07 11:20:41;;;;;;;19.15;17.40;;;11.40;16.10;;;;;;5073175;28;20694;-78
2022/03/07 11:23:08;;;;;;;18.88;17.10;;;11.90;15.70;;;;;;5073222;28;20201;-78
2022/03/07 11:25:35;;;;;;;18.98;17.27;;;12.30;15.40;;;;;;5072951;28;20533;-78
2022/03/07 11:28:02;;;;;;;20.20;18.20;;;13.10;14.90;;;;;;5072184;28;20287;-78
2022/03/07 11:30:35;;;;;;;19.85;17.95;;;13.50;13.90;;;;;;5072892;28;20261;-78
2022/03/07 11:33:10;;;;;;;20.17;18.23;;;13.20;13.30;;;;;;5072999;28;20611;-78
2022/03/07 11:35:37;;;;;;;19.75;17.95;;;13.40;13.50;;;;;;5073393;28;20291;-77
2022/03/07 11:38:12;;;;;;;19.92;18.33;;;13.50;13.10;;;;;;5072099;28;20469;-78
2022/03/07 11:40:56;;;;;;;18.80;17.15;;;13.40;12.00;;;;;;5072884;28;20196;-78
2022/03/07 11:43:24;;;;;;;18.92;17.20;;;13.60;12.40;;;;;;5073089;28;20744;-79
2022/03/07 11:45:54;;;;;;;19.08;17.48;;;13.90;12.00;;;;;;5072969;28;20207;-79
2022/03/07 11:48:21;;;;;;;19.13;17.45;;;13.70;11.60;;;;;;5072719;28;20232;-80
2022/03/07 11:50:48;;;;;;;19.25;17.58;;;13.30;12.10;;;;;;5073106;28;20258;-79
2022/03/07 11:53:15;;;;;;;19.60;17.88;;;13.90;12.10;;;;;;5072627;28;20197;-78
2022/03/07 11:55:46;;;;;;;18.65;16.75;;;13.40;11.60;;;;;;5072853;28;20291;-77
2022/03/07 11:58:13;;;;;;;19.45;17.65;;;13.70;11.40;;;;;;5072553;28;20204;-77
2022/03/07 12:00:40;;;;;;;19.63;17.90;;;14.10;11.40;;;;;;5072740;28;20201;-84
2022/03/07 12:03:13;;;;;;;18.70;16.90;;;14.80;11.10;;;;;;5072471;28;20204;-77
2022/03/07 12:05:41;;;;;;;18.98;17.27;;;14.60;10.60;;;;;;5072524;28;20200;-78
2022/03/07 12:08:11;;;;;;;19.25;17.35;;;14.20;10.30;;;;;;5072361;28;20221;-76
2022/03/07 12:10:39;;;;;;;18.80;17.15;;;15.00;10.90;;;;;;5072586;28;20250;-77
2022/03/07 12:13:07;;;;;;;19.60;17.70;;;15.20;10.40;;;;;;5072755;28;20193;-78
2022/03/07 12:15:44;;;;;;;18.92;17.23;;;15.90;10.80;;;;;;5072791;28;20606;-78
2022/03/07 12:18:12;;;;;;;19.48;17.70;;;16.20;9.30;;;;;;5073349;28;20718;-78
2022/03/07 12:20:49;;;;;;;18.45;16.75;;;16.90;9.60;;;;;;5072538;28;20201;-78
2022/03/07 12:23:17;;;;;;;19.13;17.33;;;16.60;8.60;;;;;;5072285;28;20200;-79
2022/03/07 12:25:43;;;;;;;18.52;16.92;;;16.40;9.30;;;;;;5072347;28;20197;-77
2022/03/07 12:28:11;;;;;;;18.48;16.77;;;16.40;9.10;;;;;;5072244;28;20221;-79
2022/03/07 12:30:39;;;;;;;18.05;16.50;;;16.70;9.00;;;;;;5072568;28;20197;-80
2022/03/07 12:33:07;;;;;;;18.20;16.60;;;17.30;8.80;;;;;;5072146;28;20201;-79
2022/03/07 12:35:35;;;;;;;17.77;16.17;;;17.30;8.40;;;;;;5071723;28;20249;-79